Terminal Aerodrome Forecast
Issued by NWS Memphis, TN

Home | Current Version | Previous Version | Text Only | Print | Product List | Glossary On
Versions: 1 2 3 4 5 6 7 8 9 10 11 12 13 14 15 16 17 18
120
FTUS44 KMEG 182330
TAFMKL
TAF
KMKL 182330Z 1900/1924 09005KT P6SM BKN040 OVC070
     FM190500 10005KT P6SM VCSH FEW009 OVC015
     FM190800 12005KT 5SM -SHRA BR FEW004 OVC007
      TEMPO 1911/1915 BKN004
     FM191500 15008KT 5SM -SHRA BR BKN006 OVC010=

USA.gov is the U.S. government's official web portal to all federal, state and local government web resources and services.